Portada
METAR-TAF:

METAR-TAF

Aeroports :

Westerly State Airport

Westerly, Rhode Island, Estats Units d'Amèrica

latitud: 41-20-59N, longitud: 071-47-56W, altitud: 24 m

Observació

L'informe es va fer fa 48 minuts, a les 17:53 UTC
Vent 7 kt del Sud/Sud-Oest
Temperatura 22°C
Humitat 65%
Pressió 1023 hPa
Visibilitat: 16.1 km
Cel clar

METAR: KWST 261753Z AUTO 20007KT 10SM CLR 22/15 A3022 RMK AO2 SLP231 T02220150 10228 20172 58007

Hora: 14:41 (18:41 UTC)


TAF: manca

Observacions i pronòstics meteorològics de més de 4000 aeroports (METAR i TAF).

Les estacions disponibles són els punts grocs i vermells al mapa.

Posi el ratolí al punt desitjat per veure el nom de l'estació.

Feu clic per veure les observacions i els pronòstics meteorològics.

Per canviar el mapa: feu clic els botons verds amb una creu de color negre per apropar; al botó verd amb un guió per allunyar la imatge; o en les fletxes verdes per a mapes adjacents.


METAR-TAF: